createdAt,value
2022-11-23T00:00:41.162Z,3.83
2022-11-23T00:03:07.535Z,3.83
2022-11-23T00:05:33.908Z,3.80
2022-11-23T00:08:00.255Z,3.81
2022-11-23T00:10:26.598Z,3.81
2022-11-23T00:12:52.951Z,3.78
2022-11-23T00:15:19.345Z,3.78
2022-11-23T00:17:48.091Z,3.69
2022-11-23T00:20:14.488Z,3.65
2022-11-23T00:22:40.821Z,3.62
2022-11-23T00:25:07.580Z,3.46
2022-11-23T00:27:33.958Z,3.34
2022-11-23T00:30:00.383Z,3.25
2022-11-23T00:32:28.944Z,3.16
2022-11-23T00:34:55.305Z,3.04
2022-11-23T00:37:21.649Z,2.97
2022-11-23T00:39:48.014Z,2.91
2022-11-23T00:42:14.426Z,2.79
2022-11-23T00:44:40.874Z,2.79
2022-11-23T00:47:07.575Z,2.78
2022-11-23T00:49:34.036Z,2.84
2022-11-23T00:52:00.524Z,2.87
2022-11-23T00:54:26.880Z,2.89
2022-11-23T00:56:53.233Z,2.94
2022-11-23T00:59:19.590Z,2.92
2022-11-23T01:01:46.003Z,2.94
2022-11-23T01:04:12.384Z,2.95
2022-11-23T01:06:39.473Z,2.92
2022-11-23T01:09:13.687Z,2.96
2022-11-23T01:11:40.335Z,2.99
2022-11-23T01:14:06.767Z,3.01
2022-11-23T01:16:34.857Z,3.01
2022-11-23T01:19:02.901Z,2.91
2022-11-23T01:21:29.980Z,2.86
2022-11-23T01:23:56.579Z,2.91
2022-11-23T01:26:23.009Z,2.90
2022-11-23T01:28:49.387Z,2.91
2022-11-23T01:31:18.563Z,2.91
2022-11-23T01:33:44.973Z,2.87
2022-11-23T01:36:19.090Z,2.78
2022-11-23T01:38:45.909Z,2.77
2022-11-23T01:41:13.745Z,2.74
2022-11-23T01:43:40.271Z,2.79
2022-11-23T01:46:06.636Z,2.81
2022-11-23T01:48:54.248Z,2.79
2022-11-23T01:51:22.880Z,2.77
2022-11-23T01:53:49.918Z,2.70
2022-11-23T01:56:18.570Z,2.70
2022-11-23T01:58:46.602Z,2.69
2022-11-23T02:01:13.211Z,2.72
2022-11-23T02:03:39.646Z,2.72
2022-11-23T02:06:09.965Z,2.71
2022-11-23T02:08:36.371Z,2.73
2022-11-23T02:11:02.810Z,2.67
2022-11-23T02:13:29.220Z,2.60
2022-11-23T02:15:56.370Z,2.59
2022-11-23T02:18:23.735Z,2.56
2022-11-23T02:20:50.157Z,2.57
2022-11-23T02:23:21.454Z,2.52
2022-11-23T02:25:54.384Z,2.53
2022-11-23T02:28:26.332Z,2.55
2022-11-23T02:30:53.512Z,2.54
2022-11-23T02:33:19.867Z,2.51
2022-11-23T02:35:50.374Z,2.54
2022-11-23T02:38:16.750Z,2.53
2022-11-23T02:40:43.127Z,2.55
2022-11-23T02:43:09.477Z,2.55
2022-11-23T02:45:55.851Z,2.65
2022-11-23T02:48:22.221Z,2.68
2022-11-23T02:50:48.612Z,2.72
2022-11-23T02:53:15.133Z,2.72
2022-11-23T02:55:41.539Z,2.72
2022-11-23T02:58:08.071Z,2.71
2022-11-23T03:00:34.710Z,2.79
2022-11-23T03:03:01.660Z,2.86
2022-11-23T03:05:28.265Z,2.85
2022-11-23T03:07:54.607Z,2.85
2022-11-23T03:10:21.109Z,2.87
2022-11-23T03:12:47.722Z,2.91
2022-11-23T03:15:14.105Z,2.99
2022-11-23T03:17:40.469Z,3.09
2022-11-23T03:20:07.247Z,3.13
2022-11-23T03:22:33.963Z,3.17
2022-11-23T03:25:01.441Z,3.25
2022-11-23T03:27:27.853Z,3.28
2022-11-23T03:29:54.249Z,3.32
2022-11-23T03:32:20.586Z,3.35
2022-11-23T03:34:46.938Z,3.38
2022-11-23T03:37:13.346Z,3.40
2022-11-23T03:39:44.232Z,3.42
2022-11-23T03:42:13.470Z,3.48
2022-11-23T03:44:39.821Z,3.53
2022-11-23T03:47:06.200Z,3.55
2022-11-23T03:49:34.924Z,3.63
2022-11-23T03:52:01.315Z,3.67
2022-11-23T03:54:27.654Z,3.71
2022-11-23T03:56:54.020Z,3.75
2022-11-23T03:59:20.547Z,3.79
2022-11-23T04:01:46.962Z,3.80
2022-11-23T04:04:13.381Z,3.85
2022-11-23T04:06:39.731Z,3.88
2022-11-23T04:09:06.099Z,3.93
2022-11-23T04:11:32.455Z,3.97
2022-11-23T04:13:58.794Z,3.97
2022-11-23T04:16:25.149Z,4.02
2022-11-23T04:18:51.532Z,4.06
2022-11-23T04:21:17.866Z,4.12
2022-11-23T04:23:44.237Z,4.19
2022-11-23T04:26:10.591Z,4.21
2022-11-23T04:28:36.951Z,4.19
2022-11-23T04:31:03.304Z,4.18
2022-11-23T04:33:31.545Z,4.17
2022-11-23T04:36:00.864Z,4.18
2022-11-23T04:38:27.304Z,4.18
2022-11-23T04:40:53.648Z,4.21
2022-11-23T04:43:20.004Z,4.22
2022-11-23T04:45:46.446Z,4.28
2022-11-23T04:48:12.790Z,4.32
2022-11-23T04:50:40.813Z,4.30
2022-11-23T04:53:07.245Z,4.30
2022-11-23T04:55:33.797Z,4.31
2022-11-23T04:58:00.153Z,4.30
2022-11-23T05:00:26.852Z,4.30
2022-11-23T05:02:53.237Z,4.31
2022-11-23T05:05:19.658Z,4.32
2022-11-23T05:07:46.076Z,4.36
2022-11-23T05:10:12.669Z,4.34
2022-11-23T05:12:39.058Z,4.38
2022-11-23T05:15:05.863Z,4.38
2022-11-23T05:17:33.593Z,4.39
2022-11-23T05:20:00.054Z,4.42
2022-11-23T05:22:26.482Z,4.40
2022-11-23T05:24:52.842Z,4.40
2022-11-23T05:27:19.193Z,4.44
2022-11-23T05:29:45.535Z,4.43
2022-11-23T05:32:11.909Z,4.43
2022-11-23T05:34:38.323Z,4.44
2022-11-23T05:37:04.700Z,4.45
2022-11-23T05:39:31.490Z,4.52
2022-11-23T05:41:57.963Z,4.57
2022-11-23T05:44:24.316Z,4.58
2022-11-23T05:46:50.696Z,4.56
2022-11-23T05:49:17.053Z,4.56
2022-11-23T05:51:43.453Z,4.56
2022-11-23T05:54:09.812Z,4.56
2022-11-23T05:56:40.166Z,4.56
2022-11-23T05:59:07.893Z,4.58
2022-11-23T06:01:34.374Z,4.60
2022-11-23T06:04:00.776Z,4.62
2022-11-23T06:06:27.287Z,4.63
2022-11-23T06:08:53.653Z,4.57
2022-11-23T06:11:20.034Z,4.59
2022-11-23T06:13:47.820Z,4.59
2022-11-23T06:16:14.188Z,4.60
2022-11-23T06:18:40.582Z,4.57
2022-11-23T06:21:06.932Z,4.52
2022-11-23T06:23:33.333Z,4.51
2022-11-23T06:26:00.487Z,4.48
2022-11-23T06:28:27.287Z,4.43
2022-11-23T06:30:53.615Z,4.40
2022-11-23T06:33:19.980Z,4.38
2022-11-23T06:35:57.160Z,4.37
2022-11-23T06:38:23.564Z,4.41
2022-11-23T06:40:49.907Z,4.40
2022-11-23T06:43:16.303Z,4.39
2022-11-23T06:45:42.815Z,4.39
2022-11-23T06:48:09.264Z,4.37
2022-11-23T06:50:35.642Z,4.40
2022-11-23T06:53:02.076Z,4.39
2022-11-23T06:55:28.446Z,4.36
2022-11-23T06:57:56.673Z,4.36
2022-11-23T07:00:23.113Z,4.36
2022-11-23T07:02:52.940Z,4.36
2022-11-23T07:05:19.427Z,4.40
2022-11-23T07:07:45.815Z,4.44
2022-11-23T07:10:12.470Z,4.51
2022-11-23T07:12:38.979Z,4.55
2022-11-23T07:15:05.714Z,4.56
2022-11-23T07:17:32.103Z,4.57
2022-11-23T07:19:58.476Z,4.59
2022-11-23T07:22:24.842Z,4.58
2022-11-23T07:24:51.174Z,4.63
2022-11-23T07:27:17.852Z,4.66
2022-11-23T07:29:44.216Z,4.70
2022-11-23T07:32:14.973Z,4.69
2022-11-23T07:34:41.319Z,4.76
2022-11-23T07:37:07.772Z,4.77
2022-11-23T07:39:55.745Z,4.80
2022-11-23T07:42:41.461Z,4.86
2022-11-23T07:45:07.532Z,4.90
2022-11-23T07:47:33.908Z,4.95
2022-11-23T07:50:00.277Z,4.98
2022-11-23T07:52:26.628Z,5.04
2022-11-23T07:54:52.970Z,5.10
2022-11-23T07:57:19.330Z,5.14
2022-11-23T07:59:45.682Z,5.14
2022-11-23T08:02:15.251Z,5.16
2022-11-23T08:04:41.648Z,5.17
2022-11-23T08:07:08.072Z,5.22
2022-11-23T08:09:34.443Z,5.26
2022-11-23T08:12:00.775Z,5.31
2022-11-23T08:14:27.356Z,5.37
2022-11-23T08:16:53.721Z,5.39
2022-11-23T08:19:20.077Z,5.45
2022-11-23T08:21:46.435Z,5.48
2022-11-23T08:24:12.812Z,5.49
2022-11-23T08:26:39.170Z,5.49
2022-11-23T08:29:05.581Z,5.52
2022-11-23T08:31:32.209Z,5.56
2022-11-23T08:34:03.026Z,5.55
2022-11-23T08:36:29.727Z,5.55
2022-11-23T08:38:56.072Z,5.58
2022-11-23T08:41:22.425Z,5.56
2022-11-23T08:43:48.769Z,5.52
2022-11-23T08:46:15.247Z,5.49
2022-11-23T08:48:41.601Z,5.52
2022-11-23T08:51:08.094Z,5.52
2022-11-23T08:53:34.502Z,5.57
2022-11-23T08:56:01.820Z,5.69
2022-11-23T08:58:28.265Z,5.73
2022-11-23T09:00:54.631Z,5.78
2022-11-23T09:03:21.482Z,5.81
2022-11-23T09:05:47.828Z,5.83
2022-11-23T09:08:16.374Z,5.90
2022-11-23T09:10:42.721Z,6.00
2022-11-23T09:13:09.256Z,6.10
2022-11-23T09:15:35.606Z,6.19
2022-11-23T09:18:02.130Z,6.31
2022-11-23T09:20:28.617Z,6.43
2022-11-23T09:22:55.118Z,6.45
2022-11-23T09:25:21.918Z,6.46
2022-11-23T09:27:48.737Z,6.50
2022-11-23T09:30:16.049Z,6.48
2022-11-23T09:32:42.480Z,6.48
2022-11-23T09:35:09.160Z,6.45
2022-11-23T09:37:35.546Z,6.54
2022-11-23T09:40:01.957Z,6.55
2022-11-23T09:42:53.626Z,6.61
2022-11-23T09:45:26.695Z,6.80
2022-11-23T09:47:56.184Z,6.90
2022-11-23T09:50:47.243Z,7.00
2022-11-23T09:53:26.668Z,7.04
2022-11-23T09:55:54.110Z,7.14
2022-11-23T09:58:21.606Z,7.27
2022-11-23T10:00:51.176Z,7.33
2022-11-23T10:03:17.881Z,7.44
2022-11-23T10:06:19.684Z,7.48
2022-11-23T10:09:01.222Z,7.70
2022-11-23T10:12:02.555Z,7.84
2022-11-23T10:14:50.188Z,7.90
2022-11-23T10:17:22.534Z,7.99
2022-11-23T10:20:10.838Z,8.00
2022-11-23T10:22:57.418Z,8.12
2022-11-23T10:25:24.116Z,8.14
2022-11-23T10:27:52.305Z,8.19
2022-11-23T10:30:19.098Z,8.23
2022-11-23T10:33:17.684Z,8.28
2022-11-23T10:35:44.041Z,8.31
2022-11-23T10:38:19.460Z,8.33
2022-11-23T10:40:58.489Z,8.34
2022-11-23T10:43:27.023Z,8.37
2022-11-23T10:46:17.325Z,8.42
2022-11-23T10:48:44.868Z,8.47
2022-11-23T10:51:26.510Z,8.53
2022-11-23T10:53:53.935Z,8.57
2022-11-23T10:56:20.298Z,8.65
2022-11-23T10:58:46.714Z,8.74
2022-11-23T11:01:14.400Z,8.78
2022-11-23T11:03:40.966Z,8.72
2022-11-23T11:06:09.387Z,8.76
2022-11-23T11:08:50.166Z,8.79
2022-11-23T11:11:25.708Z,8.81
2022-11-23T11:13:52.081Z,8.80
2022-11-23T11:16:37.329Z,8.84
2022-11-23T11:19:30.002Z,8.88
2022-11-23T11:21:57.516Z,8.91
2022-11-23T11:24:47.229Z,8.89
2022-11-23T11:27:18.258Z,9.01
2022-11-23T11:29:44.594Z,9.06
2022-11-23T11:32:34.943Z,9.08
2022-11-23T11:35:19.097Z,9.06
2022-11-23T11:37:47.785Z,9.08
2022-11-23T11:40:26.302Z,9.06
2022-11-23T11:43:08.582Z,9.03
2022-11-23T11:46:06.500Z,9.02
2022-11-23T11:48:48.449Z,9.04
2022-11-23T11:51:21.438Z,9.08
2022-11-23T11:54:05.539Z,9.11
2022-11-23T11:56:36.535Z,9.14
2022-11-23T11:59:14.055Z,9.19
2022-11-23T12:01:44.967Z,9.24
2022-11-23T12:04:27.759Z,9.28
2022-11-23T12:07:14.474Z,9.24
2022-11-23T12:09:42.452Z,9.20
2022-11-23T12:12:13.370Z,9.17
2022-11-23T12:14:39.787Z,9.16
2022-11-23T12:17:36.005Z,9.21
2022-11-23T12:20:07.847Z,9.25
2022-11-23T12:23:12.706Z,9.24
2022-11-23T12:25:41.888Z,9.15
2022-11-23T12:28:27.528Z,9.11
2022-11-23T12:31:21.967Z,9.21
2022-11-23T12:34:01.416Z,9.26
2022-11-23T12:37:15.948Z,9.37
2022-11-23T12:40:04.106Z,9.37
2022-11-23T12:42:44.513Z,9.39
2022-11-23T12:45:17.533Z,9.39
2022-11-23T12:47:46.672Z,9.46
2022-11-23T12:50:13.129Z,9.55
2022-11-23T12:52:43.159Z,9.61
2022-11-23T12:55:26.080Z,9.67
2022-11-23T12:57:59.089Z,9.65
2022-11-23T13:00:25.831Z,9.65
2022-11-23T13:03:35.916Z,9.62
2022-11-23T13:06:08.454Z,9.78
2022-11-23T13:09:05.187Z,9.88
2022-11-23T13:11:53.138Z,9.94
2022-11-23T13:14:35.623Z,9.94
2022-11-23T13:17:08.439Z,9.97
2022-11-23T13:19:37.719Z,10.15
2022-11-23T13:22:08.454Z,10.33
2022-11-23T13:24:39.945Z,10.48
2022-11-23T13:27:18.544Z,10.45
2022-11-23T13:29:51.177Z,10.31
2022-11-23T13:32:39.584Z,10.22
2022-11-23T13:35:21.170Z,10.12
2022-11-23T13:37:56.336Z,10.05
2022-11-23T13:40:29.764Z,10.11
2022-11-23T13:43:16.448Z,10.29
2022-11-23T13:45:43.112Z,10.20
2022-11-23T13:48:09.528Z,10.24
2022-11-23T13:50:51.486Z,10.15
2022-11-23T13:53:41.256Z,10.04
2022-11-23T13:56:41.805Z,9.85
2022-11-23T13:59:23.453Z,9.95
2022-11-23T14:02:03.305Z,9.79
2022-11-23T14:04:31.281Z,9.74
2022-11-23T14:07:17.634Z,9.69
2022-11-23T14:09:54.935Z,9.64
2022-11-23T14:12:49.782Z,9.38
2022-11-23T14:15:27.119Z,9.19
2022-11-23T14:17:59.576Z,9.08
2022-11-23T14:20:42.639Z,8.97
2022-11-23T14:23:11.954Z,8.78
2022-11-23T14:26:10.867Z,8.47
2022-11-23T14:28:59.647Z,8.38
2022-11-23T14:31:41.868Z,8.22
2022-11-23T14:34:14.448Z,8.11
2022-11-23T14:36:46.617Z,7.95
2022-11-23T14:39:25.172Z,7.78
2022-11-23T14:41:53.742Z,7.76
2022-11-23T14:44:25.563Z,7.64
2022-11-23T14:47:05.808Z,7.47
2022-11-23T14:49:32.328Z,7.41
2022-11-23T14:51:58.788Z,7.37
2022-11-23T14:54:25.802Z,7.30
2022-11-23T14:56:53.579Z,7.19
2022-11-23T14:59:27.501Z,7.06
2022-11-23T15:02:12.854Z,6.99
2022-11-23T15:04:42.423Z,7.00
2022-11-23T15:07:20.620Z,6.97
2022-11-23T15:09:51.747Z,7.03
2022-11-23T15:12:24.187Z,7.13
2022-11-23T15:14:51.304Z,7.10
2022-11-23T15:17:19.388Z,7.05
2022-11-23T15:20:01.782Z,6.99
2022-11-23T15:22:28.526Z,6.89
2022-11-23T15:24:55.115Z,6.85
2022-11-23T15:27:29.877Z,6.80
2022-11-23T15:29:58.076Z,6.72
2022-11-23T15:32:33.910Z,6.62
2022-11-23T15:35:03.473Z,6.52
2022-11-23T15:37:29.874Z,6.52
2022-11-23T15:39:56.277Z,6.54
2022-11-23T15:42:24.077Z,6.46
2022-11-23T15:44:54.843Z,6.40
2022-11-23T15:47:26.114Z,6.34
2022-11-23T15:49:55.503Z,6.33
2022-11-23T15:52:21.910Z,6.28
2022-11-23T15:54:48.273Z,6.30
2022-11-23T15:57:22.567Z,6.25
2022-11-23T15:59:50.279Z,6.14
2022-11-23T16:02:28.573Z,6.04
2022-11-23T16:05:14.732Z,5.96
2022-11-23T16:07:57.607Z,6.00
2022-11-23T16:10:25.812Z,5.99
2022-11-23T16:12:56.613Z,5.94
2022-11-23T16:15:38.406Z,5.89
2022-11-23T16:18:06.319Z,5.86
2022-11-23T16:20:32.667Z,5.87
2022-11-23T16:23:00.213Z,5.81
2022-11-23T16:25:31.651Z,5.77
2022-11-23T16:28:00.998Z,5.66
2022-11-23T16:30:35.163Z,5.57
2022-11-23T16:33:01.557Z,5.47
2022-11-23T16:35:27.905Z,5.43
2022-11-23T16:37:54.263Z,5.43
2022-11-23T16:40:20.616Z,5.40
2022-11-23T16:42:51.016Z,5.28
2022-11-23T16:45:17.393Z,5.19
2022-11-23T16:47:59.958Z,5.15
2022-11-23T16:50:33.133Z,5.13
2022-11-23T16:53:10.243Z,5.16
2022-11-23T16:55:40.699Z,5.22
2022-11-23T16:58:10.235Z,5.26
2022-11-23T17:00:36.569Z,5.21
2022-11-23T17:03:02.932Z,5.12
2022-11-23T17:05:29.285Z,5.02
2022-11-23T17:07:55.749Z,4.90
2022-11-23T17:10:22.186Z,4.87
2022-11-23T17:12:53.475Z,4.86
2022-11-23T17:15:20.833Z,4.87
2022-11-23T17:17:47.181Z,4.86
2022-11-23T17:20:14.645Z,4.84
2022-11-23T17:22:41.018Z,4.80
2022-11-23T17:25:14.266Z,4.84
2022-11-23T17:27:41.806Z,4.83
2022-11-23T17:30:13.765Z,4.70
2022-11-23T17:32:40.102Z,4.65
2022-11-23T17:35:06.805Z,4.61
2022-11-23T17:37:33.184Z,4.50
2022-11-23T17:39:59.579Z,4.44
2022-11-23T17:42:25.922Z,4.41
2022-11-23T17:44:52.357Z,4.37
2022-11-23T17:47:28.994Z,4.29
2022-11-23T17:49:55.615Z,4.25
2022-11-23T17:52:22.436Z,4.19
2022-11-23T17:54:48.851Z,4.14
2022-11-23T17:57:15.909Z,4.03
2022-11-23T17:59:42.332Z,3.95
2022-11-23T18:02:09.155Z,3.89
2022-11-23T18:04:35.597Z,3.89
2022-11-23T18:07:02.196Z,3.84
2022-11-23T18:09:28.622Z,3.92
2022-11-23T18:11:55.036Z,4.03
2022-11-23T18:14:22.142Z,4.20
2022-11-23T18:16:48.600Z,4.33
2022-11-23T18:19:15.015Z,4.51
2022-11-23T18:21:41.829Z,4.59
2022-11-23T18:24:11.676Z,4.70
2022-11-23T18:26:38.360Z,4.68
2022-11-23T18:29:04.735Z,4.72
2022-11-23T18:31:31.145Z,4.64
2022-11-23T18:33:57.743Z,4.53
2022-11-23T18:36:24.495Z,4.65
2022-11-23T18:38:50.901Z,4.65
2022-11-23T18:41:17.365Z,4.63
2022-11-23T18:43:44.285Z,4.70
2022-11-23T18:46:11.332Z,4.67
2022-11-23T18:48:37.914Z,4.73
2022-11-23T18:51:04.802Z,4.66
2022-11-23T18:53:32.265Z,4.67
2022-11-23T18:56:04.860Z,4.67
2022-11-23T18:58:39.029Z,4.62
2022-11-23T19:01:17.775Z,4.62
2022-11-23T19:03:44.670Z,4.64
2022-11-23T19:06:14.395Z,4.61
2022-11-23T19:08:48.616Z,4.52
2022-11-23T19:11:20.896Z,4.41
2022-11-23T19:13:52.302Z,4.30
2022-11-23T19:16:21.334Z,4.26
2022-11-23T19:18:48.383Z,4.21
2022-11-23T19:21:15.826Z,4.20
2022-11-23T19:23:42.570Z,4.17
2022-11-23T19:26:09.015Z,4.14
2022-11-23T19:28:35.617Z,4.02
2022-11-23T19:31:19.076Z,3.99
2022-11-23T19:33:46.375Z,3.95
2022-11-23T19:36:14.785Z,3.94
2022-11-23T19:38:41.162Z,3.91
2022-11-23T19:41:07.614Z,3.91
2022-11-23T19:43:34.054Z,3.84
2022-11-23T19:46:02.476Z,3.77
2022-11-23T19:48:32.789Z,3.72
2022-11-23T19:51:12.285Z,3.66
2022-11-23T19:53:39.230Z,3.58
2022-11-23T19:56:26.070Z,3.52
2022-11-23T19:58:53.689Z,3.50
2022-11-23T20:01:21.238Z,3.43
2022-11-23T20:03:50.792Z,3.40
2022-11-23T20:06:27.907Z,3.30
2022-11-23T20:08:58.462Z,3.31
2022-11-23T20:11:25.580Z,3.28
2022-11-23T20:13:51.987Z,3.21
2022-11-23T20:16:19.090Z,3.21
2022-11-23T20:18:45.970Z,3.15
2022-11-23T20:21:13.509Z,3.13
2022-11-23T20:23:40.626Z,3.14
2022-11-23T20:26:07.484Z,3.14
2022-11-23T20:28:33.929Z,3.15
2022-11-23T20:31:07.115Z,3.21
2022-11-23T20:33:33.537Z,3.22
2022-11-23T20:36:09.594Z,3.26
2022-11-23T20:38:39.167Z,3.23
2022-11-23T20:41:15.908Z,3.24
2022-11-23T20:43:42.583Z,3.18
2022-11-23T20:46:09.165Z,3.20
2022-11-23T20:48:35.636Z,3.14
2022-11-23T20:51:07.585Z,3.11
2022-11-23T20:53:36.709Z,3.09
2022-11-23T20:56:03.088Z,3.04
2022-11-23T20:58:29.724Z,3.03
2022-11-23T21:00:56.489Z,3.04
2022-11-23T21:03:22.933Z,2.99
2022-11-23T21:05:49.353Z,2.99
2022-11-23T21:08:25.380Z,3.02
2022-11-23T21:11:12.773Z,3.01
2022-11-23T21:13:57.667Z,2.95
2022-11-23T21:16:24.050Z,2.94
2022-11-23T21:18:51.587Z,2.93
2022-11-23T21:21:17.944Z,2.94
2022-11-23T21:23:48.147Z,2.88
2022-11-23T21:26:17.292Z,2.86
2022-11-23T21:28:43.666Z,2.89
2022-11-23T21:31:10.296Z,2.90
2022-11-23T21:33:37.158Z,2.90
2022-11-23T21:36:04.489Z,2.87
2022-11-23T21:38:38.457Z,2.91
2022-11-23T21:41:06.075Z,3.00
2022-11-23T21:43:32.533Z,3.13
2022-11-23T21:46:09.354Z,3.22
2022-11-23T21:48:36.047Z,3.38
2022-11-23T21:51:03.826Z,3.52
2022-11-23T21:53:30.657Z,3.65
2022-11-23T21:56:01.427Z,3.67
2022-11-23T21:58:28.073Z,3.73
2022-11-23T22:00:54.509Z,3.74
2022-11-23T22:03:21.073Z,3.79
2022-11-23T22:05:57.444Z,3.89
2022-11-23T22:08:31.548Z,3.92
2022-11-23T22:10:58.178Z,3.97
2022-11-23T22:13:24.730Z,4.01
2022-11-23T22:15:51.321Z,4.04
2022-11-23T22:18:17.933Z,4.10
2022-11-23T22:20:44.502Z,4.10
2022-11-23T22:23:12.195Z,4.13
2022-11-23T22:25:40.209Z,4.19
2022-11-23T22:28:09.513Z,4.16
2022-11-23T22:30:35.949Z,4.15
2022-11-23T22:33:02.461Z,4.14
2022-11-23T22:35:29.612Z,4.13
2022-11-23T22:37:56.318Z,4.11
2022-11-23T22:40:22.766Z,4.08
2022-11-23T22:42:49.287Z,4.07
2022-11-23T22:45:15.852Z,4.08
2022-11-23T22:47:42.300Z,4.09
2022-11-23T22:50:09.300Z,4.12
2022-11-23T22:52:35.793Z,4.15
2022-11-23T22:55:02.470Z,4.20
2022-11-23T22:57:28.924Z,4.23
2022-11-23T22:59:55.417Z,4.26
2022-11-23T23:02:22.143Z,4.32
2022-11-23T23:04:48.627Z,4.33
2022-11-23T23:07:15.121Z,4.32
2022-11-23T23:09:41.627Z,4.35
2022-11-23T23:12:08.186Z,4.33
2022-11-23T23:14:35.512Z,4.34
2022-11-23T23:17:02.186Z,4.34
2022-11-23T23:19:28.863Z,4.33
2022-11-23T23:21:55.321Z,4.32
2022-11-23T23:24:21.783Z,4.32
2022-11-23T23:26:48.472Z,4.32
2022-11-23T23:29:15.137Z,4.36
2022-11-23T23:31:41.600Z,4.36
2022-11-23T23:34:08.134Z,4.31
2022-11-23T23:36:35.417Z,4.29
2022-11-23T23:39:05.084Z,4.31
2022-11-23T23:41:31.534Z,4.34
2022-11-23T23:43:57.990Z,4.36
2022-11-23T23:46:24.590Z,4.40
2022-11-23T23:48:51.165Z,4.39
2022-11-23T23:51:22.070Z,4.39
2022-11-23T23:53:48.628Z,4.43
2022-11-23T23:56:17.049Z,4.43
2022-11-23T23:58:43.680Z,4.46
